sensor_id;sensor_type;location;lat;lon;timestamp;P1;durP1;ratioP1;P2;durP2;ratioP2
78410;SDS011;67706;51.074;-1.796;2023-05-07T00:02:03;10.95;;;4.45;;
78410;SDS011;67706;51.074;-1.796;2023-05-07T00:04:30;13.43;;;4.80;;
78410;SDS011;67706;51.074;-1.796;2023-05-07T00:07:00;11.07;;;4.78;;
78410;SDS011;67706;51.074;-1.796;2023-05-07T00:09:27;10.45;;;4.00;;
78410;SDS011;67706;51.074;-1.796;2023-05-07T00:11:54;18.35;;;5.63;;
78410;SDS011;67706;51.074;-1.796;2023-05-07T00:14:22;10.27;;;3.90;;
78410;SDS011;67706;51.074;-1.796;2023-05-07T00:16:49;12.40;;;4.40;;
78410;SDS011;67706;51.074;-1.796;2023-05-07T00:19:16;16.70;;;5.13;;
78410;SDS011;67706;51.074;-1.796;2023-05-07T00:21:42;12.27;;;4.55;;
78410;SDS011;67706;51.074;-1.796;2023-05-07T00:24:09;15.70;;;4.90;;
78410;SDS011;67706;51.074;-1.796;2023-05-07T00:26:36;23.23;;;5.22;;
78410;SDS011;67706;51.074;-1.796;2023-05-07T00:29:02;14.32;;;4.18;;
78410;SDS011;67706;51.074;-1.796;2023-05-07T00:31:30;10.85;;;4.55;;
78410;SDS011;67706;51.074;-1.796;2023-05-07T00:33:57;18.75;;;4.22;;
78410;SDS011;67706;51.074;-1.796;2023-05-07T00:36:24;10.40;;;4.10;;
78410;SDS011;67706;51.074;-1.796;2023-05-07T00:38:51;11.18;;;3.85;;
78410;SDS011;67706;51.074;-1.796;2023-05-07T00:41:20;9.25;;;3.80;;
78410;SDS011;67706;51.074;-1.796;2023-05-07T00:43:46;13.40;;;3.70;;
78410;SDS011;67706;51.074;-1.796;2023-05-07T00:46:13;9.20;;;4.18;;
78410;SDS011;67706;51.074;-1.796;2023-05-07T00:48:42;9.98;;;4.03;;
78410;SDS011;67706;51.074;-1.796;2023-05-07T00:51:09;11.20;;;3.67;;
78410;SDS011;67706;51.074;-1.796;2023-05-07T00:53:36;13.55;;;3.83;;
78410;SDS011;67706;51.074;-1.796;2023-05-07T00:56:04;10.95;;;4.25;;
78410;SDS011;67706;51.074;-1.796;2023-05-07T00:58:32;14.00;;;3.97;;
78410;SDS011;67706;51.074;-1.796;2023-05-07T01:00:59;7.88;;;3.85;;
78410;SDS011;67706;51.074;-1.796;2023-05-07T01:03:26;8.23;;;3.88;;
78410;SDS011;67706;51.074;-1.796;2023-05-07T01:05:54;8.48;;;3.45;;
78410;SDS011;67706;51.074;-1.796;2023-05-07T01:08:22;6.78;;;3.35;;
78410;SDS011;67706;51.074;-1.796;2023-05-07T01:10:51;8.95;;;3.70;;
78410;SDS011;67706;51.074;-1.796;2023-05-07T01:13:19;8.35;;;3.50;;
78410;SDS011;67706;51.074;-1.796;2023-05-07T01:15:46;9.10;;;3.83;;
78410;SDS011;67706;51.074;-1.796;2023-05-07T01:18:13;9.50;;;3.72;;
78410;SDS011;67706;51.074;-1.796;2023-05-07T01:20:40;6.63;;;3.30;;
78410;SDS011;67706;51.074;-1.796;2023-05-07T01:23:09;8.60;;;3.80;;
78410;SDS011;67706;51.074;-1.796;2023-05-07T01:25:37;7.95;;;3.85;;
78410;SDS011;67706;51.074;-1.796;2023-05-07T01:28:04;10.45;;;4.57;;
78410;SDS011;67706;51.074;-1.796;2023-05-07T01:30:30;8.20;;;3.95;;
78410;SDS011;67706;51.074;-1.796;2023-05-07T01:33:00;11.27;;;3.58;;
78410;SDS011;67706;51.074;-1.796;2023-05-07T01:35:38;7.15;;;3.83;;
78410;SDS011;67706;51.074;-1.796;2023-05-07T01:38:06;7.65;;;3.67;;
78410;SDS011;67706;51.074;-1.796;2023-05-07T01:40:35;14.15;;;3.70;;
78410;SDS011;67706;51.074;-1.796;2023-05-07T01:43:02;18.40;;;3.97;;
78410;SDS011;67706;51.074;-1.796;2023-05-07T01:45:30;11.40;;;3.63;;
78410;SDS011;67706;51.074;-1.796;2023-05-07T01:47:57;11.70;;;3.42;;
78410;SDS011;67706;51.074;-1.796;2023-05-07T01:50:24;9.25;;;3.97;;
78410;SDS011;67706;51.074;-1.796;2023-05-07T01:52:52;9.07;;;3.95;;
78410;SDS011;67706;51.074;-1.796;2023-05-07T01:55:20;11.48;;;4.35;;
78410;SDS011;67706;51.074;-1.796;2023-05-07T01:57:47;8.07;;;3.92;;
78410;SDS011;67706;51.074;-1.796;2023-05-07T02:00:14;8.52;;;3.28;;
78410;SDS011;67706;51.074;-1.796;2023-05-07T02:02:41;15.00;;;3.88;;
78410;SDS011;67706;51.074;-1.796;2023-05-07T02:05:08;11.13;;;4.07;;
78410;SDS011;67706;51.074;-1.796;2023-05-07T02:07:35;16.08;;;3.88;;
78410;SDS011;67706;51.074;-1.796;2023-05-07T02:10:01;13.73;;;4.07;;
78410;SDS011;67706;51.074;-1.796;2023-05-07T02:12:30;11.32;;;3.88;;
78410;SDS011;67706;51.074;-1.796;2023-05-07T02:14:57;11.45;;;3.67;;
78410;SDS011;67706;51.074;-1.796;2023-05-07T02:17:23;13.25;;;3.60;;
78410;SDS011;67706;51.074;-1.796;2023-05-07T02:19:50;9.75;;;3.60;;
78410;SDS011;67706;51.074;-1.796;2023-05-07T02:22:17;9.00;;;3.60;;
78410;SDS011;67706;51.074;-1.796;2023-05-07T02:24:44;12.27;;;3.65;;
78410;SDS011;67706;51.074;-1.796;2023-05-07T02:27:10;11.63;;;3.90;;
78410;SDS011;67706;51.074;-1.796;2023-05-07T02:29:38;14.50;;;4.03;;
78410;SDS011;67706;51.074;-1.796;2023-05-07T02:32:05;10.75;;;4.10;;
78410;SDS011;67706;51.074;-1.796;2023-05-07T02:34:32;7.90;;;3.35;;
78410;SDS011;67706;51.074;-1.796;2023-05-07T02:36:59;8.93;;;3.47;;
78410;SDS011;67706;51.074;-1.796;2023-05-07T02:39:25;8.05;;;3.67;;
78410;SDS011;67706;51.074;-1.796;2023-05-07T02:41:52;7.60;;;3.60;;
78410;SDS011;67706;51.074;-1.796;2023-05-07T02:44:19;8.35;;;3.70;;
78410;SDS011;67706;51.074;-1.796;2023-05-07T02:46:47;9.75;;;4.22;;
78410;SDS011;67706;51.074;-1.796;2023-05-07T02:49:13;7.20;;;3.35;;
78410;SDS011;67706;51.074;-1.796;2023-05-07T02:51:40;7.30;;;4.25;;
78410;SDS011;67706;51.074;-1.796;2023-05-07T02:54:07;7.40;;;4.07;;
78410;SDS011;67706;51.074;-1.796;2023-05-07T02:56:33;10.00;;;4.38;;
78410;SDS011;67706;51.074;-1.796;2023-05-07T02:59:00;5.65;;;3.60;;
78410;SDS011;67706;51.074;-1.796;2023-05-07T03:01:27;7.15;;;3.53;;
78410;SDS011;67706;51.074;-1.796;2023-05-07T03:03:55;6.95;;;3.38;;
78410;SDS011;67706;51.074;-1.796;2023-05-07T03:06:22;7.45;;;3.75;;
78410;SDS011;67706;51.074;-1.796;2023-05-07T03:08:48;7.22;;;4.18;;
78410;SDS011;67706;51.074;-1.796;2023-05-07T03:11:15;6.97;;;3.13;;
78410;SDS011;67706;51.074;-1.796;2023-05-07T03:13:42;7.82;;;4.00;;
78410;SDS011;67706;51.074;-1.796;2023-05-07T03:16:08;7.15;;;3.47;;
78410;SDS011;67706;51.074;-1.796;2023-05-07T03:18:35;7.25;;;3.55;;
78410;SDS011;67706;51.074;-1.796;2023-05-07T03:21:03;9.43;;;4.10;;
78410;SDS011;67706;51.074;-1.796;2023-05-07T03:23:30;9.00;;;4.20;;
78410;SDS011;67706;51.074;-1.796;2023-05-07T03:25:57;9.85;;;4.47;;
78410;SDS011;67706;51.074;-1.796;2023-05-07T03:28:23;10.95;;;5.47;;
78410;SDS011;67706;51.074;-1.796;2023-05-07T03:30:50;11.43;;;4.90;;
78410;SDS011;67706;51.074;-1.796;2023-05-07T03:33:17;13.82;;;5.18;;
78410;SDS011;67706;51.074;-1.796;2023-05-07T03:35:43;16.10;;;6.25;;
78410;SDS011;67706;51.074;-1.796;2023-05-07T03:38:12;16.83;;;6.65;;
78410;SDS011;67706;51.074;-1.796;2023-05-07T03:40:38;18.20;;;5.63;;
78410;SDS011;67706;51.074;-1.796;2023-05-07T03:43:05;21.73;;;7.80;;
78410;SDS011;67706;51.074;-1.796;2023-05-07T03:45:32;15.80;;;6.50;;
78410;SDS011;67706;51.074;-1.796;2023-05-07T03:47:58;18.40;;;7.10;;
78410;SDS011;67706;51.074;-1.796;2023-05-07T03:50:25;20.02;;;6.90;;
78410;SDS011;67706;51.074;-1.796;2023-05-07T03:52:52;24.20;;;7.90;;
78410;SDS011;67706;51.074;-1.796;2023-05-07T03:55:20;17.80;;;7.18;;
78410;SDS011;67706;51.074;-1.796;2023-05-07T03:57:47;16.98;;;7.15;;
78410;SDS011;67706;51.074;-1.796;2023-05-07T04:00:14;19.50;;;7.70;;
78410;SDS011;67706;51.074;-1.796;2023-05-07T04:02:40;21.88;;;7.25;;
78410;SDS011;67706;51.074;-1.796;2023-05-07T04:05:07;15.77;;;6.43;;
78410;SDS011;67706;51.074;-1.796;2023-05-07T04:07:34;15.88;;;5.93;;
78410;SDS011;67706;51.074;-1.796;2023-05-07T04:10:01;18.92;;;7.30;;
78410;SDS011;67706;51.074;-1.796;2023-05-07T04:12:29;23.27;;;7.13;;
78410;SDS011;67706;51.074;-1.796;2023-05-07T04:14:56;19.80;;;6.35;;
78410;SDS011;67706;51.074;-1.796;2023-05-07T04:17:22;20.40;;;7.20;;
78410;SDS011;67706;51.074;-1.796;2023-05-07T04:19:49;16.25;;;6.70;;
78410;SDS011;67706;51.074;-1.796;2023-05-07T04:22:16;17.58;;;6.82;;
78410;SDS011;67706;51.074;-1.796;2023-05-07T04:24:42;18.90;;;7.03;;
78410;SDS011;67706;51.074;-1.796;2023-05-07T04:27:09;18.27;;;7.40;;
78410;SDS011;67706;51.074;-1.796;2023-05-07T04:29:37;15.88;;;6.65;;
78410;SDS011;67706;51.074;-1.796;2023-05-07T04:32:07;18.88;;;7.00;;
78410;SDS011;67706;51.074;-1.796;2023-05-07T04:34:34;15.32;;;6.32;;
78410;SDS011;67706;51.074;-1.796;2023-05-07T04:37:00;29.20;;;8.13;;
78410;SDS011;67706;51.074;-1.796;2023-05-07T04:39:27;15.93;;;7.20;;
78410;SDS011;67706;51.074;-1.796;2023-05-07T04:41:54;25.48;;;8.48;;
78410;SDS011;67706;51.074;-1.796;2023-05-07T04:44:20;20.55;;;8.30;;
78410;SDS011;67706;51.074;-1.796;2023-05-07T04:46:48;23.90;;;8.77;;
78410;SDS011;67706;51.074;-1.796;2023-05-07T04:49:15;26.77;;;8.98;;
78410;SDS011;67706;51.074;-1.796;2023-05-07T04:51:42;27.83;;;10.00;;
78410;SDS011;67706;51.074;-1.796;2023-05-07T04:54:08;26.77;;;9.73;;
78410;SDS011;67706;51.074;-1.796;2023-05-07T04:56:35;25.15;;;8.63;;
78410;SDS011;67706;51.074;-1.796;2023-05-07T04:59:02;28.85;;;10.85;;
78410;SDS011;67706;51.074;-1.796;2023-05-07T05:01:28;27.40;;;9.50;;
78410;SDS011;67706;51.074;-1.796;2023-05-07T05:03:57;25.48;;;9.70;;
78410;SDS011;67706;51.074;-1.796;2023-05-07T05:06:25;26.27;;;9.55;;
78410;SDS011;67706;51.074;-1.796;2023-05-07T05:08:51;25.83;;;9.55;;
78410;SDS011;67706;51.074;-1.796;2023-05-07T05:11:18;29.15;;;9.85;;
78410;SDS011;67706;51.074;-1.796;2023-05-07T05:13:45;28.98;;;10.20;;
78410;SDS011;67706;51.074;-1.796;2023-05-07T05:16:13;27.73;;;10.13;;
78410;SDS011;67706;51.074;-1.796;2023-05-07T05:18:40;25.15;;;9.18;;
78410;SDS011;67706;51.074;-1.796;2023-05-07T05:21:08;25.05;;;9.32;;
78410;SDS011;67706;51.074;-1.796;2023-05-07T05:23:35;21.20;;;8.88;;
78410;SDS011;67706;51.074;-1.796;2023-05-07T05:26:02;23.77;;;9.10;;
78410;SDS011;67706;51.074;-1.796;2023-05-07T05:28:28;25.80;;;9.85;;
78410;SDS011;67706;51.074;-1.796;2023-05-07T05:30:55;26.02;;;9.27;;
78410;SDS011;67706;51.074;-1.796;2023-05-07T05:33:22;26.58;;;9.95;;
78410;SDS011;67706;51.074;-1.796;2023-05-07T05:35:49;27.20;;;10.15;;
78410;SDS011;67706;51.074;-1.796;2023-05-07T05:38:17;29.88;;;11.50;;
78410;SDS011;67706;51.074;-1.796;2023-05-07T05:40:46;28.48;;;10.00;;
78410;SDS011;67706;51.074;-1.796;2023-05-07T05:43:13;33.22;;;11.80;;
78410;SDS011;67706;51.074;-1.796;2023-05-07T05:45:39;25.83;;;10.32;;
78410;SDS011;67706;51.074;-1.796;2023-05-07T05:48:06;24.70;;;9.63;;
78410;SDS011;67706;51.074;-1.796;2023-05-07T05:50:33;27.85;;;10.07;;
78410;SDS011;67706;51.074;-1.796;2023-05-07T05:53:00;32.50;;;10.98;;
78410;SDS011;67706;51.074;-1.796;2023-05-07T05:55:29;27.23;;;10.32;;
78410;SDS011;67706;51.074;-1.796;2023-05-07T05:57:57;24.58;;;9.95;;
78410;SDS011;67706;51.074;-1.796;2023-05-07T06:00:24;25.95;;;10.05;;
78410;SDS011;67706;51.074;-1.796;2023-05-07T06:02:51;25.48;;;9.20;;
78410;SDS011;67706;51.074;-1.796;2023-05-07T06:05:18;26.15;;;10.10;;
78410;SDS011;67706;51.074;-1.796;2023-05-07T06:07:45;27.45;;;10.07;;
78410;SDS011;67706;51.074;-1.796;2023-05-07T06:10:11;24.42;;;9.75;;
78410;SDS011;67706;51.074;-1.796;2023-05-07T06:12:39;28.55;;;10.63;;
78410;SDS011;67706;51.074;-1.796;2023-05-07T06:15:06;31.25;;;12.52;;
78410;SDS011;67706;51.074;-1.796;2023-05-07T06:17:33;28.52;;;10.40;;
78410;SDS011;67706;51.074;-1.796;2023-05-07T06:20:00;29.27;;;10.75;;
78410;SDS011;67706;51.074;-1.796;2023-05-07T06:22:27;22.52;;;9.45;;
78410;SDS011;67706;51.074;-1.796;2023-05-07T06:24:53;26.10;;;9.68;;
78410;SDS011;67706;51.074;-1.796;2023-05-07T06:27:20;25.98;;;9.77;;
78410;SDS011;67706;51.074;-1.796;2023-05-07T06:29:48;26.85;;;10.48;;
78410;SDS011;67706;51.074;-1.796;2023-05-07T06:32:15;26.80;;;10.57;;
78410;SDS011;67706;51.074;-1.796;2023-05-07T06:34:42;28.92;;;10.63;;
78410;SDS011;67706;51.074;-1.796;2023-05-07T06:37:09;29.25;;;10.27;;
78410;SDS011;67706;51.074;-1.796;2023-05-07T06:39:36;24.23;;;10.20;;
78410;SDS011;67706;51.074;-1.796;2023-05-07T06:42:03;28.27;;;9.73;;
78410;SDS011;67706;51.074;-1.796;2023-05-07T06:44:30;24.77;;;10.13;;
78410;SDS011;67706;51.074;-1.796;2023-05-07T06:46:59;26.25;;;10.48;;
78410;SDS011;67706;51.074;-1.796;2023-05-07T06:49:25;21.67;;;9.13;;
78410;SDS011;67706;51.074;-1.796;2023-05-07T06:51:52;22.75;;;8.85;;
78410;SDS011;67706;51.074;-1.796;2023-05-07T06:54:19;25.88;;;10.45;;
78410;SDS011;67706;51.074;-1.796;2023-05-07T06:56:45;25.05;;;8.77;;
78410;SDS011;67706;51.074;-1.796;2023-05-07T06:59:12;24.13;;;9.35;;
78410;SDS011;67706;51.074;-1.796;2023-05-07T07:01:39;23.08;;;10.15;;
78410;SDS011;67706;51.074;-1.796;2023-05-07T07:04:07;18.42;;;8.02;;
78410;SDS011;67706;51.074;-1.796;2023-05-07T07:06:34;26.13;;;9.88;;
78410;SDS011;67706;51.074;-1.796;2023-05-07T07:09:00;17.95;;;7.40;;
78410;SDS011;67706;51.074;-1.796;2023-05-07T07:11:27;16.77;;;7.53;;
78410;SDS011;67706;51.074;-1.796;2023-05-07T07:13:54;19.95;;;7.20;;
78410;SDS011;67706;51.074;-1.796;2023-05-07T07:16:20;22.58;;;8.02;;
78410;SDS011;67706;51.074;-1.796;2023-05-07T07:18:47;19.40;;;6.43;;
78410;SDS011;67706;51.074;-1.796;2023-05-07T07:21:15;16.98;;;7.35;;
78410;SDS011;67706;51.074;-1.796;2023-05-07T07:23:42;19.40;;;7.80;;
78410;SDS011;67706;51.074;-1.796;2023-05-07T07:26:09;19.35;;;7.88;;
78410;SDS011;67706;51.074;-1.796;2023-05-07T07:28:41;20.17;;;7.68;;
78410;SDS011;67706;51.074;-1.796;2023-05-07T07:31:09;14.75;;;6.72;;
78410;SDS011;67706;51.074;-1.796;2023-05-07T07:33:36;20.30;;;8.27;;
78410;SDS011;67706;51.074;-1.796;2023-05-07T07:36:02;18.33;;;7.47;;
78410;SDS011;67706;51.074;-1.796;2023-05-07T07:38:31;19.23;;;8.52;;
78410;SDS011;67706;51.074;-1.796;2023-05-07T07:40:58;27.63;;;8.30;;
78410;SDS011;67706;51.074;-1.796;2023-05-07T07:43:26;17.90;;;6.57;;
78410;SDS011;67706;51.074;-1.796;2023-05-07T07:45:52;20.05;;;7.20;;
78410;SDS011;67706;51.074;-1.796;2023-05-07T07:48:19;18.55;;;7.72;;
78410;SDS011;67706;51.074;-1.796;2023-05-07T07:50:48;20.35;;;6.68;;
78410;SDS011;67706;51.074;-1.796;2023-05-07T07:53:15;15.73;;;7.25;;
78410;SDS011;67706;51.074;-1.796;2023-05-07T07:55:43;19.25;;;7.38;;
78410;SDS011;67706;51.074;-1.796;2023-05-07T07:58:10;12.68;;;6.93;;
78410;SDS011;67706;51.074;-1.796;2023-05-07T08:00:36;15.93;;;7.10;;
78410;SDS011;67706;51.074;-1.796;2023-05-07T08:03:03;16.73;;;7.38;;
78410;SDS011;67706;51.074;-1.796;2023-05-07T08:05:31;15.50;;;7.40;;
78410;SDS011;67706;51.074;-1.796;2023-05-07T08:07:58;16.70;;;7.70;;
78410;SDS011;67706;51.074;-1.796;2023-05-07T08:10:25;17.40;;;7.85;;
78410;SDS011;67706;51.074;-1.796;2023-05-07T08:12:53;17.55;;;7.13;;
78410;SDS011;67706;51.074;-1.796;2023-05-07T08:15:19;17.33;;;7.07;;
78410;SDS011;67706;51.074;-1.796;2023-05-07T08:17:46;17.55;;;7.60;;
78410;SDS011;67706;51.074;-1.796;2023-05-07T08:20:13;14.43;;;7.10;;
78410;SDS011;67706;51.074;-1.796;2023-05-07T08:22:40;16.90;;;6.35;;
78410;SDS011;67706;51.074;-1.796;2023-05-07T08:25:07;17.42;;;7.20;;
78410;SDS011;67706;51.074;-1.796;2023-05-07T08:27:34;14.93;;;7.05;;
78410;SDS011;67706;51.074;-1.796;2023-05-07T08:30:02;13.05;;;6.38;;
78410;SDS011;67706;51.074;-1.796;2023-05-07T08:32:30;13.52;;;6.05;;
78410;SDS011;67706;51.074;-1.796;2023-05-07T08:34:57;14.35;;;6.35;;
78410;SDS011;67706;51.074;-1.796;2023-05-07T08:37:23;13.63;;;5.35;;
78410;SDS011;67706;51.074;-1.796;2023-05-07T08:39:50;13.45;;;5.53;;
78410;SDS011;67706;51.074;-1.796;2023-05-07T08:42:17;11.40;;;6.40;;
78410;SDS011;67706;51.074;-1.796;2023-05-07T08:44:45;13.65;;;6.38;;
78410;SDS011;67706;51.074;-1.796;2023-05-07T08:47:14;13.38;;;6.20;;
78410;SDS011;67706;51.074;-1.796;2023-05-07T08:52:12;11.73;;;5.38;;
78410;SDS011;67706;51.074;-1.796;2023-05-07T08:54:38;14.85;;;5.75;;
78410;SDS011;67706;51.074;-1.796;2023-05-07T08:57:06;9.05;;;4.60;;
78410;SDS011;67706;51.074;-1.796;2023-05-07T08:59:33;8.23;;;4.45;;
78410;SDS011;67706;51.074;-1.796;2023-05-07T09:01:59;11.65;;;5.60;;
78410;SDS011;67706;51.074;-1.796;2023-05-07T09:04:28;11.63;;;5.40;;
78410;SDS011;67706;51.074;-1.796;2023-05-07T09:06:56;10.30;;;4.95;;
78410;SDS011;67706;51.074;-1.796;2023-05-07T09:09:28;13.73;;;5.75;;
78410;SDS011;67706;51.074;-1.796;2023-05-07T09:11:56;11.25;;;5.35;;
78410;SDS011;67706;51.074;-1.796;2023-05-07T09:14:24;11.23;;;5.38;;
78410;SDS011;67706;51.074;-1.796;2023-05-07T09:16:51;9.20;;;5.00;;
78410;SDS011;67706;51.074;-1.796;2023-05-07T09:19:21;10.35;;;4.20;;
78410;SDS011;67706;51.074;-1.796;2023-05-07T09:21:50;13.20;;;5.00;;
78410;SDS011;67706;51.074;-1.796;2023-05-07T09:24:24;7.68;;;4.50;;
78410;SDS011;67706;51.074;-1.796;2023-05-07T09:26:51;13.50;;;5.75;;
78410;SDS011;67706;51.074;-1.796;2023-05-07T09:29:17;9.68;;;4.75;;
78410;SDS011;67706;51.074;-1.796;2023-05-07T09:31:44;12.05;;;4.25;;
78410;SDS011;67706;51.074;-1.796;2023-05-07T09:34:11;8.50;;;4.43;;
78410;SDS011;67706;51.074;-1.796;2023-05-07T09:36:38;8.05;;;3.88;;
78410;SDS011;67706;51.074;-1.796;2023-05-07T09:39:06;7.95;;;3.88;;
78410;SDS011;67706;51.074;-1.796;2023-05-07T09:41:33;10.82;;;4.13;;
78410;SDS011;67706;51.074;-1.796;2023-05-07T09:44:09;5.85;;;3.08;;
78410;SDS011;67706;51.074;-1.796;2023-05-07T09:46:36;8.43;;;3.17;;
78410;SDS011;67706;51.074;-1.796;2023-05-07T09:49:05;7.13;;;3.05;;
78410;SDS011;67706;51.074;-1.796;2023-05-07T09:51:36;10.68;;;3.83;;
78410;SDS011;67706;51.074;-1.796;2023-05-07T09:54:09;8.35;;;3.45;;
78410;SDS011;67706;51.074;-1.796;2023-05-07T09:56:36;10.48;;;3.80;;
78410;SDS011;67706;51.074;-1.796;2023-05-07T09:59:04;7.53;;;3.55;;
78410;SDS011;67706;51.074;-1.796;2023-05-07T10:01:33;7.35;;;3.05;;
78410;SDS011;67706;51.074;-1.796;2023-05-07T10:04:02;7.32;;;3.03;;
78410;SDS011;67706;51.074;-1.796;2023-05-07T10:06:29;5.85;;;2.78;;
78410;SDS011;67706;51.074;-1.796;2023-05-07T10:08:56;7.43;;;3.47;;
78410;SDS011;67706;51.074;-1.796;2023-05-07T10:11:26;9.70;;;3.00;;
78410;SDS011;67706;51.074;-1.796;2023-05-07T10:13:53;8.00;;;3.00;;
78410;SDS011;67706;51.074;-1.796;2023-05-07T10:16:20;9.85;;;3.10;;
78410;SDS011;67706;51.074;-1.796;2023-05-07T10:18:47;6.43;;;3.08;;
78410;SDS011;67706;51.074;-1.796;2023-05-07T10:21:16;7.57;;;3.22;;
78410;SDS011;67706;51.074;-1.796;2023-05-07T10:23:44;7.00;;;3.47;;
78410;SDS011;67706;51.074;-1.796;2023-05-07T10:26:12;8.25;;;3.63;;
78410;SDS011;67706;51.074;-1.796;2023-05-07T10:28:43;8.98;;;3.83;;
78410;SDS011;67706;51.074;-1.796;2023-05-07T10:31:18;8.32;;;2.78;;
78410;SDS011;67706;51.074;-1.796;2023-05-07T10:34:09;6.57;;;2.70;;
78410;SDS011;67706;51.074;-1.796;2023-05-07T10:36:39;7.53;;;3.17;;
78410;SDS011;67706;51.074;-1.796;2023-05-07T10:39:07;8.45;;;3.40;;
78410;SDS011;67706;51.074;-1.796;2023-05-07T10:41:34;8.65;;;2.90;;
78410;SDS011;67706;51.074;-1.796;2023-05-07T10:44:03;8.18;;;2.90;;
78410;SDS011;67706;51.074;-1.796;2023-05-07T10:46:30;8.18;;;3.22;;
78410;SDS011;67706;51.074;-1.796;2023-05-07T10:49:06;6.28;;;3.10;;
78410;SDS011;67706;51.074;-1.796;2023-05-07T10:51:35;10.23;;;3.53;;
78410;SDS011;67706;51.074;-1.796;2023-05-07T10:54:23;6.93;;;3.40;;
78410;SDS011;67706;51.074;-1.796;2023-05-07T10:56:50;9.70;;;3.35;;
78410;SDS011;67706;51.074;-1.796;2023-05-07T10:59:31;8.98;;;3.65;;
78410;SDS011;67706;51.074;-1.796;2023-05-07T11:02:05;8.40;;;3.72;;
78410;SDS011;67706;51.074;-1.796;2023-05-07T11:04:34;6.63;;;3.40;;
78410;SDS011;67706;51.074;-1.796;2023-05-07T11:09:54;9.73;;;3.75;;
78410;SDS011;67706;51.074;-1.796;2023-05-07T11:15:40;6.65;;;4.00;;
78410;SDS011;67706;51.074;-1.796;2023-05-07T11:18:09;7.68;;;4.03;;
78410;SDS011;67706;51.074;-1.796;2023-05-07T11:20:44;8.82;;;3.67;;
78410;SDS011;67706;51.074;-1.796;2023-05-07T11:26:41;8.27;;;4.10;;
78410;SDS011;67706;51.074;-1.796;2023-05-07T11:29:12;9.82;;;3.80;;
78410;SDS011;67706;51.074;-1.796;2023-05-07T11:31:42;7.40;;;4.35;;
78410;SDS011;67706;51.074;-1.796;2023-05-07T11:34:09;8.95;;;3.53;;
78410;SDS011;67706;51.074;-1.796;2023-05-07T11:36:41;6.13;;;3.30;;
78410;SDS011;67706;51.074;-1.796;2023-05-07T11:41:55;6.47;;;3.00;;
78410;SDS011;67706;51.074;-1.796;2023-05-07T11:44:22;7.07;;;2.65;;
78410;SDS011;67706;51.074;-1.796;2023-05-07T11:46:50;7.13;;;2.70;;
78410;SDS011;67706;51.074;-1.796;2023-05-07T11:49:17;3.97;;;2.33;;
78410;SDS011;67706;51.074;-1.796;2023-05-07T11:51:44;5.55;;;2.50;;
78410;SDS011;67706;51.074;-1.796;2023-05-07T11:54:11;5.40;;;2.40;;
78410;SDS011;67706;51.074;-1.796;2023-05-07T11:56:43;5.70;;;2.58;;
78410;SDS011;67706;51.074;-1.796;2023-05-07T11:59:11;5.28;;;2.33;;
78410;SDS011;67706;51.074;-1.796;2023-05-07T12:01:37;6.25;;;2.10;;
78410;SDS011;67706;51.074;-1.796;2023-05-07T12:04:06;6.38;;;2.40;;
78410;SDS011;67706;51.074;-1.796;2023-05-07T12:06:35;4.68;;;1.63;;
78410;SDS011;67706;51.074;-1.796;2023-05-07T12:09:02;3.13;;;1.60;;
78410;SDS011;67706;51.074;-1.796;2023-05-07T12:11:30;6.03;;;1.85;;
78410;SDS011;67706;51.074;-1.796;2023-05-07T12:13:56;3.92;;;1.30;;
78410;SDS011;67706;51.074;-1.796;2023-05-07T12:16:23;2.85;;;1.17;;
78410;SDS011;67706;51.074;-1.796;2023-05-07T12:18:50;5.25;;;1.10;;
78410;SDS011;67706;51.074;-1.796;2023-05-07T12:21:21;3.38;;;1.23;;
78410;SDS011;67706;51.074;-1.796;2023-05-07T12:23:48;4.18;;;1.40;;
78410;SDS011;67706;51.074;-1.796;2023-05-07T12:26:15;4.82;;;1.15;;
78410;SDS011;67706;51.074;-1.796;2023-05-07T12:28:41;3.78;;;1.48;;
78410;SDS011;67706;51.074;-1.796;2023-05-07T12:31:08;5.35;;;1.67;;
78410;SDS011;67706;51.074;-1.796;2023-05-07T12:33:35;2.42;;;1.10;;
78410;SDS011;67706;51.074;-1.796;2023-05-07T12:36:06;2.80;;;1.15;;
78410;SDS011;67706;51.074;-1.796;2023-05-07T12:38:38;5.18;;;1.05;;
78410;SDS011;67706;51.074;-1.796;2023-05-07T12:41:06;2.88;;;0.80;;
78410;SDS011;67706;51.074;-1.796;2023-05-07T12:43:33;5.65;;;1.48;;
78410;SDS011;67706;51.074;-1.796;2023-05-07T12:46:01;6.55;;;1.35;;
78410;SDS011;67706;51.074;-1.796;2023-05-07T12:48:30;4.68;;;1.27;;
78410;SDS011;67706;51.074;-1.796;2023-05-07T12:50:57;6.00;;;1.23;;
78410;SDS011;67706;51.074;-1.796;2023-05-07T12:53:26;4.57;;;1.15;;
78410;SDS011;67706;51.074;-1.796;2023-05-07T12:55:55;3.15;;;1.20;;
78410;SDS011;67706;51.074;-1.796;2023-05-07T12:58:23;2.60;;;0.98;;
78410;SDS011;67706;51.074;-1.796;2023-05-07T13:00:51;2.67;;;1.25;;
78410;SDS011;67706;51.074;-1.796;2023-05-07T13:03:22;5.30;;;1.23;;
78410;SDS011;67706;51.074;-1.796;2023-05-07T13:05:50;4.70;;;1.10;;
78410;SDS011;67706;51.074;-1.796;2023-05-07T13:08:23;3.47;;;1.20;;
78410;SDS011;67706;51.074;-1.796;2023-05-07T13:10:50;3.22;;;1.10;;
78410;SDS011;67706;51.074;-1.796;2023-05-07T13:13:19;3.22;;;1.08;;
78410;SDS011;67706;51.074;-1.796;2023-05-07T13:15:46;3.38;;;0.98;;
78410;SDS011;67706;51.074;-1.796;2023-05-07T13:18:12;3.33;;;1.02;;
78410;SDS011;67706;51.074;-1.796;2023-05-07T13:20:39;3.60;;;1.20;;
78410;SDS011;67706;51.074;-1.796;2023-05-07T13:23:06;3.35;;;1.50;;
78410;SDS011;67706;51.074;-1.796;2023-05-07T13:25:33;6.25;;;1.70;;
78410;SDS011;67706;51.074;-1.796;2023-05-07T13:28:00;2.40;;;1.10;;
78410;SDS011;67706;51.074;-1.796;2023-05-07T13:30:29;5.13;;;1.52;;
78410;SDS011;67706;51.074;-1.796;2023-05-07T13:32:56;2.20;;;1.10;;
78410;SDS011;67706;51.074;-1.796;2023-05-07T13:35:23;3.47;;;0.90;;
78410;SDS011;67706;51.074;-1.796;2023-05-07T13:37:49;4.65;;;1.40;;
78410;SDS011;67706;51.074;-1.796;2023-05-07T13:40:17;6.40;;;1.63;;
78410;SDS011;67706;51.074;-1.796;2023-05-07T13:42:44;2.58;;;1.20;;
78410;SDS011;67706;51.074;-1.796;2023-05-07T13:45:10;4.45;;;1.55;;
78410;SDS011;67706;51.074;-1.796;2023-05-07T13:47:40;2.83;;;1.20;;
78410;SDS011;67706;51.074;-1.796;2023-05-07T13:50:07;2.17;;;1.10;;
78410;SDS011;67706;51.074;-1.796;2023-05-07T13:52:36;2.55;;;1.25;;
78410;SDS011;67706;51.074;-1.796;2023-05-07T13:55:03;3.40;;;1.40;;
78410;SDS011;67706;51.074;-1.796;2023-05-07T13:57:30;5.13;;;1.70;;
78410;SDS011;67706;51.074;-1.796;2023-05-07T13:59:57;3.92;;;1.42;;
78410;SDS011;67706;51.074;-1.796;2023-05-07T14:02:24;3.92;;;1.80;;
78410;SDS011;67706;51.074;-1.796;2023-05-07T14:04:52;2.60;;;1.08;;
78410;SDS011;67706;51.074;-1.796;2023-05-07T14:07:18;3.80;;;1.52;;
78410;SDS011;67706;51.074;-1.796;2023-05-07T14:09:45;3.92;;;1.83;;
78410;SDS011;67706;51.074;-1.796;2023-05-07T14:12:12;4.40;;;1.65;;
78410;SDS011;67706;51.074;-1.796;2023-05-07T14:14:38;4.60;;;1.40;;
78410;SDS011;67706;51.074;-1.796;2023-05-07T14:17:05;4.38;;;1.50;;
78410;SDS011;67706;51.074;-1.796;2023-05-07T14:19:33;6.20;;;2.30;;
78410;SDS011;67706;51.074;-1.796;2023-05-07T14:22:01;3.10;;;1.20;;
78410;SDS011;67706;51.074;-1.796;2023-05-07T14:24:28;6.93;;;1.83;;
78410;SDS011;67706;51.074;-1.796;2023-05-07T14:26:55;3.40;;;1.25;;
78410;SDS011;67706;51.074;-1.796;2023-05-07T14:29:22;3.65;;;1.40;;
78410;SDS011;67706;51.074;-1.796;2023-05-07T14:31:48;2.22;;;1.20;;
78410;SDS011;67706;51.074;-1.796;2023-05-07T14:34:15;4.07;;;1.33;;
78410;SDS011;67706;51.074;-1.796;2023-05-07T14:36:42;2.80;;;1.10;;
78410;SDS011;67706;51.074;-1.796;2023-05-07T14:39:10;2.42;;;1.00;;
78410;SDS011;67706;51.074;-1.796;2023-05-07T14:41:37;3.63;;;1.20;;
78410;SDS011;67706;51.074;-1.796;2023-05-07T14:44:03;3.58;;;1.35;;